Terminal Aerodrome Forecast
Issued by NWS Cleveland, OH

Home | Current Version | Previous Version | Graphics & Text | Print | Product List | Glossary On
Versions: 1 2 3 4 5 6 7 8 9 10 11 12 13 14 15 16 17 18 19 20 21 22 23 24 25 26 27 28 29
000
FTUS41 KCLE 202000 AAA
TAFCLE
TAF AMD
KCLE 202055Z 2021/2124 03008KT P6SM SCT035 OVC250
     FM210100 VRB03KT P6SM FEW050 OVC120
     FM211300 32008KT P6SM SCT050 OVC100=

USA.gov is the U.S. government's official web portal to all federal, state and local government web resources and services.